Saga Journey — VRCY8 — position and weather

sailwx.info

Track history (hours):
 
Tides and Currents Weather Stations Pressure Air Temp Water Temp Dewpoint Dewpoint Depression Visibility Wind Speed Wind Dir Waves Ship Positions

Saga Journey

Last reported at 2017-Nov-12 16:12 UTC. Time now 2017-Nov-18 19:43 UTC.
Position N 35°55' W 017°14'.

Length 199 m; draft 6.7 m.

Type: Cargo ship. MMSI: 477883200.

Date/timePositionNaut miles runAvg speedWind from/ knotsBaromVisibWave heightAir tempDewpointWater temp
2017-Nov-12 16:12N 35°55' W 017°14'414.4
2017-Nov-12 15:57N 35°58' W 017°12'20814.5
2017-Nov-12 01:35N 38°52' W 014°47'7114.7
2017-Nov-11 20:44N 39°51' W 013°56'314.7
2017-Nov-11 20:30N 39°54' W 013°54'714.7
2017-Nov-11 20:01N 40°00' W 013°49'714.8
2017-Nov-11 19:31N 40°06' W 013°43'714.6
2017-Nov-11 19:00N 40°12' W 013°38'814.4
2017-Nov-11 18:26N 40°19' W 013°32'714.7
2017-Nov-11 17:59N 40°25' W 013°27'814.5
2017-Nov-11 17:27N 40°31' W 013°22'614.6
2017-Nov-11 17:00N 40°37' W 013°17'1314.7
2017-Nov-11 16:07N 40°48' W 013°07'214.7
2017-Nov-11 16:00N 40°49' W 013°06'814.7
2017-Nov-11 15:27N 40°55' W 012°59'714.7
2017-Nov-11 15:00N 41°01' W 012°55'914.6
2017-Nov-11 14:22N 41°09' W 012°49'714.4
2017-Nov-11 13:55N 41°14' W 012°44'44214.4
2017-Nov-10 07:10N 47°27' W 007°10'313.6
2017-Nov-10 06:56N 47°29' W 007°08'713.2
2017-Nov-10 06:23N 47°35' W 007°02'612.9
2017-Nov-10 05:56N 47°40' W 006°57'613.2
2017-Nov-10 05:28N 47°45' W 006°52'713.4
2017-Nov-10 04:58N 47°51' W 006°47'613.4
2017-Nov-10 04:30N 47°57' W 006°42'713.4
2017-Nov-10 04:00N 48°02' W 006°37'713.6
2017-Nov-10 03:30N 48°08' W 006°31'814.2
2017-Nov-10 02:55N 48°15' W 006°25'814.4
2017-Nov-10 02:22N 48°22' W 006°18'1414.7
2017-Nov-10 01:25N 48°34' W 006°07'1614.8
2017-Nov-10 00:18N 48°47' W 005°54'514.8
2017-Nov-09 23:57N 48°52' W 005°50'613.0
2017-Nov-09 23:29N 48°56' W 005°43'612.8
2017-Nov-09 23:00N 48°59' W 005°35'612.9
2017-Nov-09 22:30N 49°02' W 005°26'811.8
2017-Nov-09 21:49N 49°06' W 005°16'410.0
2017-Nov-09 21:26N 49°08' W 005°11'6 9.8
2017-Nov-09 20:48N 49°11' W 005°02'6 9.9
2017-Nov-09 20:10N 49°14' W 004°54'410.0
2017-Nov-09 19:47N 49°16' W 004°49'2510.6
2017-Nov-09 17:26N 49°29' W 004°16'3712.0
2017-Nov-09 14:24N 49°48' W 003°28'511.9
2017-Nov-09 13:59N 49°50' W 003°21'711.5
2017-Nov-09 13:24N 49°53' W 003°12'411.1
2017-Nov-09 13:00N 49°56' W 003°06'510.7
2017-Nov-09 12:30N 49°58' W 002°59'510.2
2017-Nov-09 12:00N 49°59' W 002°51'5 9.8
2017-Nov-09 11:30N 50°01' W 002°44'5 9.4
2017-Nov-09 10:57N 50°02' W 002°36'4 9.1
2017-Nov-09 10:30N 50°03' W 002°30'9 9.3
2017-Nov-09 09:33N 50°06' W 002°17'3 9.7
2017-Nov-09 09:14N 50°07' W 002°12'210.1
2017-Nov-09 09:00N 50°08' W 002°09'510.6
2017-Nov-09 08:31N 50°09' W 002°01'611.4
2017-Nov-09 08:00N 50°11' W 001°52'612.4
2017-Nov-09 07:30N 50°12' W 001°43'713.2
2017-Nov-09 07:00N 50°14' W 001°33'713.9
2017-Nov-09 06:31N 50°16' W 001°23'714.3
2017-Nov-09 06:01N 50°18' W 001°12'2914.3
2017-Nov-09 04:00N 50°26' W 000°29'713.2
2017-Nov-09 03:27N 50°28' W 000°18'612.8
2017-Nov-09 03:00N 50°30' W 000°09'612.2
2017-Nov-09 02:30N 50°31' W 000°00'611.8
2017-Nov-09 02:01N 50°33' E 000°09'611.2
2017-Nov-09 01:30N 50°35' E 000°17'510.3
2017-Nov-09 01:00N 50°36' E 000°25'510.4
2017-Nov-09 00:31N 50°38' E 000°33'510.6
2017-Nov-09 00:00N 50°40' E 000°40'611.3
2017-Nov-08 23:31N 50°44' E 000°47'611.8
2017-Nov-08 23:00N 50°47' E 000°55'612.8
2017-Nov-08 22:31N 50°51' E 001°03'813.9
2017-Nov-08 21:57N 50°56' E 001°12'714.9
2017-Nov-08 21:31N 51°01' E 001°20'714.9
2017-Nov-08 21:00N 51°05' E 001°29'714.7
2017-Nov-08 20:31N 51°10' E 001°38'713.6
2017-Nov-08 20:01N 51°15' E 001°46'612.5
2017-Nov-08 19:31N 51°19' E 001°53'612.1
2017-Nov-08 19:01N 51°24' E 001°59'611.0
2017-Nov-08 18:30N 51°23' E 002°08'611.9
2017-Nov-08 18:01N 51°21' E 002°16'611.4
2017-Nov-08 17:30N 51°22' E 002°25'711.1
2017-Nov-08 16:52N 51°23' E 002°37'411.2
2017-Nov-08 16:30N 51°22' E 002°43'510.1
2017-Nov-08 16:01N 51°23' E 002°51'612.6
2017-Nov-08 15:31N 51°24' E 003°01'612.3
2017-Nov-08 15:00N 51°24' E 003°11'611.3
2017-Nov-08 14:31N 51°24' E 003°20'5 9.5
2017-Nov-08 14:00N 51°25' E 003°27'5 9.6
2017-Nov-08 13:31N 51°26' E 003°35'4 8.5
2017-Nov-08 13:00N 51°28' E 003°41'1 2.4
2017-Nov-08 12:30N 51°27' E 003°43'0 0.2
2017-Nov-08 11:58N 51°27' E 003°43'0 0.0
2017-Nov-08 11:28N 51°27' E 003°43'0 0.0
2017-Nov-08 10:49N 51°27' E 003°43'0 0.0
2017-Nov-08 10:22N 51°27' E 003°43'0 0.0
2017-Nov-08 09:58N 51°27' E 003°43'0 0.0
2017-Nov-08 09:28N 51°27' E 003°43'0 0.0
2017-Nov-08 08:52N 51°27' E 003°43'0 0.0
2017-Nov-08 08:28N 51°27' E 003°43'0 0.0
2017-Nov-08 07:55N 51°27' E 003°43'0 0.0
2017-Nov-08 07:22N 51°27' E 003°43'0 0.0
2017-Nov-08 06:58N 51°27' E 003°43'0 0.0
2017-Nov-08 06:22N 51°27' E 003°43'0 0.0
2017-Nov-08 05:58N 51°27' E 003°43'0 0.0
2017-Nov-08 05:28N 51°27' E 003°43'0 0.0
2017-Nov-08 04:58N 51°27' E 003°43'0 0.0
2017-Nov-08 04:25N 51°27' E 003°43'0 0.0
2017-Nov-08 03:58N 51°27' E 003°43'0 0.0
2017-Nov-08 03:22N 51°27' E 003°43'0 0.0
2017-Nov-08 02:58N 51°27' E 003°43'0 0.0
2017-Nov-08 02:28N 51°27' E 003°43'0 0.0
2017-Nov-08 01:58N 51°27' E 003°43'0 0.0
2017-Nov-08 01:28N 51°27' E 003°43'0 0.0
2017-Nov-08 00:58N 51°27' E 003°43'0 0.0
2017-Nov-08 00:22N 51°27' E 003°43'0 0.0
2017-Nov-07 23:49N 51°27' E 003°43'0 0.0
2017-Nov-07 23:28N 51°27' E 003°43'0 0.0
2017-Nov-07 22:58N 51°27' E 003°43'0 0.0
2017-Nov-07 22:22N 51°27' E 003°43'0 0.0
2017-Nov-07 21:58N 51°27' E 003°43'0 0.0
2017-Nov-07 21:28N 51°27' E 003°43'0 0.0
2017-Nov-07 20:55N 51°27' E 003°43'0 0.0
2017-Nov-07 20:28N 51°27' E 003°43'0 0.0
2017-Nov-07 19:58N 51°27' E 003°43'0 0.0
2017-Nov-07 19:28N 51°27' E 003°43'0 0.0
2017-Nov-07 18:58N 51°27' E 003°43'0 0.0
2017-Nov-07 18:25N 51°27' E 003°43'0 0.0
2017-Nov-07 17:58N 51°27' E 003°43'0 0.0
2017-Nov-07 17:28N 51°27' E 003°43'0 0.0
2017-Nov-07 16:58N 51°27' E 003°43'0 0.0
2017-Nov-07 16:22N 51°27' E 003°43'0 0.0
2017-Nov-07 15:58N 51°27' E 003°43'0 0.0
2017-Nov-07 15:28N 51°27' E 003°43'0 0.0
2017-Nov-07 14:58N 51°27' E 003°43'0 0.0
2017-Nov-07 14:28N 51°27' E 003°43'0 0.0
2017-Nov-07 13:58N 51°27' E 003°43'0 0.0
2017-Nov-07 13:28N 51°27' E 003°43'0 0.0
2017-Nov-07 12:58N 51°27' E 003°43'0 0.0
2017-Nov-07 12:28N 51°27' E 003°43'0 0.0
2017-Nov-07 11:58N 51°27' E 003°43'0 0.0
2017-Nov-07 11:28N 51°27' E 003°43'0 0.0
2017-Nov-07 10:58N 51°27' E 003°43'0 0.0
2017-Nov-07 10:28N 51°27' E 003°43'0 0.0
2017-Nov-07 09:58N 51°27' E 003°43'0 0.0
2017-Nov-07 09:28N 51°27' E 003°43'0 0.0
2017-Nov-07 08:49N 51°27' E 003°43'0 0.0
2017-Nov-07 08:28N 51°27' E 003°43'0 0.0
2017-Nov-07 07:58N 51°27' E 003°43'0 0.0
2017-Nov-07 07:28N 51°27' E 003°43'0 0.0
2017-Nov-07 06:58N 51°27' E 003°43'0 0.0
2017-Nov-07 06:28N 51°27' E 003°43'0 0.0
2017-Nov-07 05:58N 51°27' E 003°43'0 0.0
2017-Nov-07 05:28N 51°27' E 003°43'0 0.0
2017-Nov-07 04:58N 51°27' E 003°43'0 0.0
2017-Nov-07 04:28N 51°27' E 003°43'0 0.0
2017-Nov-07 03:58N 51°27' E 003°43'0 0.0
2017-Nov-07 03:28N 51°27' E 003°43'0 0.0
2017-Nov-07 02:58N 51°27' E 003°43'0 0.0
2017-Nov-07 02:28N 51°27' E 003°43'0 0.0
2017-Nov-07 01:58N 51°27' E 003°43'0 0.0
2017-Nov-07 01:28N 51°27' E 003°43'0 0.0
2017-Nov-07 00:58N 51°27' E 003°43'0 0.0
2017-Nov-07 00:28N 51°27' E 003°43'0 0.0
2017-Nov-06 23:58N 51°27' E 003°43'0 0.0
2017-Nov-06 23:28N 51°27' E 003°43'0 0.0
2017-Nov-06 22:58N 51°27' E 003°43'0 0.0
2017-Nov-06 22:28N 51°27' E 003°43'0 0.0
2017-Nov-06 21:58N 51°27' E 003°43'0 0.0
2017-Nov-06 21:28N 51°27' E 003°43'0 0.0
2017-Nov-06 20:58N 51°27' E 003°43'0 0.0
2017-Nov-06 20:28N 51°27' E 003°43'0 0.0
2017-Nov-06 02:22N 51°27' E 003°43'0 0.0
2017-Nov-06 01:58N 51°27' E 003°43'0 0.0
2017-Nov-06 01:28N 51°27' E 003°43'0 0.0
2017-Nov-06 00:58N 51°27' E 003°43'0 0.0
2017-Nov-06 00:28N 51°27' E 003°43'0 0.0
2017-Nov-05 23:58N 51°27' E 003°43'0 0.0
2017-Nov-05 23:28N 51°27' E 003°43'0 0.0
2017-Nov-05 22:58N 51°27' E 003°43'0 0.0
2017-Nov-05 22:28N 51°27' E 003°43'0 0.0
2017-Nov-05 21:58N 51°27' E 003°43'0 0.0
2017-Nov-05 21:28N 51°27' E 003°43'0 0.0
2017-Nov-05 20:40N 51°27' E 003°43'0 0.0
2017-Nov-05 20:28N 51°27' E 003°43'0 0.0
2017-Nov-05 19:58N 51°27' E 003°43'0 0.0
2017-Nov-05 19:22N 51°27' E 003°43'0 0.0
2017-Nov-05 18:58N 51°27' E 003°43'0 0.0
2017-Nov-05 18:22N 51°27' E 003°43'0 0.0
2017-Nov-05 17:58N 51°27' E 003°43'0 0.0
2017-Nov-05 17:28N 51°27' E 003°43'0 0.0
2017-Nov-05 16:58N 51°27' E 003°43'0 0.0
2017-Nov-05 16:28N 51°27' E 003°43'0 0.0
2017-Nov-05 15:52N 51°27' E 003°43'0 0.0
2017-Nov-05 15:28N 51°27' E 003°43'0 0.0
2017-Nov-05 14:58N 51°27' E 003°43'0 0.0
2017-Nov-05 14:28N 51°27' E 003°43'0 0.0
2017-Nov-05 13:58N 51°27' E 003°43'0 0.0
2017-Nov-05 13:28N 51°27' E 003°43'0 0.0
2017-Nov-05 12:52N 51°27' E 003°43'0 0.0
2017-Nov-05 12:28N 51°27' E 003°43'0 0.0
2017-Nov-05 11:58N 51°27' E 003°43'0 0.0
2017-Nov-05 11:28N 51°27' E 003°43'0 0.0
2017-Nov-05 10:43N 51°27' E 003°43'0 0.0
2017-Nov-05 10:22N 51°27' E 003°43'0 0.0
2017-Nov-05 09:55N 51°27' E 003°43'0 0.0
2017-Nov-05 09:25N 51°27' E 003°43'0 0.0
2017-Nov-05 08:58N 51°27' E 003°43'0 0.0
2017-Nov-05 08:22N 51°27' E 003°43'0 0.0
2017-Nov-05 07:58N 51°27' E 003°43'0 0.0
2017-Nov-05 07:19N 51°27' E 003°43'0 0.0
2017-Nov-05 06:55N 51°27' E 003°43'0 0.0
2017-Nov-05 06:28N 51°27' E 003°43'0 0.0
2017-Nov-05 05:58N 51°27' E 003°43'0 0.0
2017-Nov-05 05:28N 51°27' E 003°43'0 0.0
2017-Nov-05 04:58N 51°27' E 003°43'0 0.0
2017-Nov-05 04:28N 51°27' E 003°43'0 0.0
2017-Nov-05 03:58N 51°27' E 003°43'0 0.0
2017-Nov-05 03:28N 51°27' E 003°43'0 0.0
2017-Nov-05 02:58N 51°27' E 003°43'0 0.0
2017-Nov-05 02:28N 51°27' E 003°43'0 0.0
2017-Nov-05 01:58N 51°27' E 003°43'0 0.0
2017-Nov-05 01:28N 51°27' E 003°43'0 0.0
2017-Nov-05 00:55N 51°27' E 003°43'0 0.0
2017-Nov-05 00:28N 51°27' E 003°43'0 0.0
2017-Nov-04 23:58N 51°27' E 003°43'0 0.0
2017-Nov-04 23:28N 51°27' E 003°43'0 0.0
2017-Nov-04 22:58N 51°27' E 003°43'0 0.0
2017-Nov-04 22:28N 51°27' E 003°43'0 0.0
2017-Nov-04 21:58N 51°27' E 003°43'0 0.0
2017-Nov-04 21:28N 51°27' E 003°43'0 0.0
2017-Nov-04 20:58N 51°27' E 003°43'0 0.0
2017-Nov-04 20:28N 51°27' E 003°43'0 0.0
2017-Nov-04 19:58N 51°27' E 003°43'0 0.0
2017-Nov-04 19:28N 51°27' E 003°43'0 0.0
2017-Nov-04 18:58N 51°27' E 003°43'0 0.0
2017-Nov-04 18:28N 51°27' E 003°43'0 0.0
2017-Nov-04 17:58N 51°27' E 003°43'0 0.0
2017-Nov-04 17:28N 51°27' E 003°43'0 0.0
2017-Nov-04 16:55N 51°27' E 003°43'0 0.0
2017-Nov-04 16:28N 51°27' E 003°43'0 0.0
2017-Nov-04 15:58N 51°27' E 003°43'0 0.0
2017-Nov-04 15:22N 51°27' E 003°43'0 0.0
2017-Nov-04 14:58N 51°27' E 003°43'0 0.0
2017-Nov-04 14:28N 51°27' E 003°43'0 0.0
2017-Nov-04 13:58N 51°27' E 003°43'0 0.0
2017-Nov-04 13:28N 51°27' E 003°43'0 0.0
2017-Nov-04 12:58N 51°27' E 003°43'0 0.0
2017-Nov-04 12:28N 51°27' E 003°43'0 0.0
2017-Nov-04 11:58N 51°27' E 003°43'0 0.0
2017-Nov-04 11:28N 51°27' E 003°43'0 0.0
2017-Nov-04 10:58N 51°27' E 003°43'0 0.0
2017-Nov-04 10:25N 51°27' E 003°43'0 0.0
2017-Nov-04 09:58N 51°27' E 003°43'0 0.0
2017-Nov-04 09:28N 51°27' E 003°43'0 0.0
2017-Nov-04 08:58N 51°27' E 003°43'0 0.0
2017-Nov-04 08:28N 51°27' E 003°43'0 0.0
2017-Nov-04 07:58N 51°27' E 003°43'0 0.0
2017-Nov-04 07:28N 51°27' E 003°43'0 0.0
2017-Nov-04 06:58N 51°27' E 003°43'0 0.0
2017-Nov-04 06:28N 51°27' E 003°43'0 0.0
2017-Nov-04 05:58N 51°27' E 003°43'0 0.0
2017-Nov-04 05:28N 51°27' E 003°43'0 0.0
2017-Nov-04 04:58N 51°27' E 003°43'0 0.0
2017-Nov-04 04:28N 51°27' E 003°43'0 0.0
2017-Nov-04 03:58N 51°27' E 003°43'0 0.0
2017-Nov-04 03:22N 51°27' E 003°43'0 0.0
2017-Nov-04 02:58N 51°27' E 003°43'0 0.0
2017-Nov-04 02:28N 51°27' E 003°43'0 0.0
2017-Nov-04 01:56N 51°27' E 003°43'0 0.0
2017-Nov-04 01:30N 51°27' E 003°43'0 0.6
2017-Nov-04 01:00N 51°27' E 003°43'1 2.8
2017-Nov-04 00:30N 51°27' E 003°41'3 5.5
2017-Nov-04 00:00N 51°26' E 003°37'510.6
2017-Nov-03 23:30N 51°25' E 003°29'714.9
2017-Nov-03 23:01N 51°24' E 003°17'714.8
2017-Nov-03 22:31N 51°24' E 003°05'612.8
2017-Nov-03 22:00N 51°22' E 002°55'611.4
2017-Nov-03 21:30N 51°21' E 002°46'4 8.8
2017-Nov-03 21:00N 51°22' E 002°39'2 3.9
2017-Nov-03 20:30N 51°22' E 002°36'2 4.3
2017-Nov-03 20:00N 51°22' E 002°33'2 4.9
2017-Nov-03 19:30N 51°22' E 002°29'3 5.9
2017-Nov-03 19:00N 51°20' E 002°24'3 5.4
2017-Nov-03 18:30N 51°19' E 002°21'2 4.5
2017-Nov-03 18:00N 51°18' E 002°18'3 6.4
2017-Nov-03 17:30N 51°17' E 002°13'3 6.9
2017-Nov-03 17:00N 51°15' E 002°08'4 7.2
2017-Nov-03 16:30N 51°13' E 002°03'4 7.5
2017-Nov-03 16:00N 51°11' E 001°58'4 7.8
2017-Nov-03 15:30N 51°09' E 001°53'5 9.2
2017-Nov-03 15:00N 51°07' E 001°46'611.6
2017-Nov-03 14:30N 51°03' E 001°40'612.1
2017-Nov-03 14:00N 50°59' E 001°33'612.0
2017-Nov-03 13:29N 50°53' E 001°27'612.5
2017-Nov-03 13:00N 50°48' E 001°24'612.2
2017-Nov-03 12:30N 50°42' E 001°20'611.7
2017-Nov-03 12:00N 50°38' E 001°13'611.8
2017-Nov-03 11:30N 50°35' E 001°06'611.7
2017-Nov-03 10:58N 50°31' E 000°58'611.5
2017-Nov-03 10:27N 50°27' E 000°51'511.5
2017-Nov-03 10:00N 50°26' E 000°43'1112.0
2017-Nov-03 09:04N 50°23' E 000°26'112.5
2017-Nov-03 09:00N 50°23' E 000°25'612.7
2017-Nov-03 08:30N 50°21' E 000°15'713.2
2017-Nov-03 08:00N 50°20' E 000°05'713.3
2017-Nov-03 07:30N 50°18' W 000°05'713.4
2017-Nov-03 07:00N 50°16' W 000°15'713.6
2017-Nov-03 06:29N 50°14' W 000°26'713.4
2017-Nov-03 05:57N 50°13' W 000°37'613.1
2017-Nov-03 05:30N 50°11' W 000°45'712.7
2017-Nov-03 04:59N 50°09' W 000°55'612.1
2017-Nov-03 04:29N 50°08' W 001°05'611.4
2017-Nov-03 03:59N 50°07' W 001°13'510.5
2017-Nov-03 03:30N 50°05' W 001°21'5 9.7
2017-Nov-03 03:00N 50°04' W 001°28'4 8.9
2017-Nov-03 02:31N 50°03' W 001°35'4 8.2
2017-Nov-03 02:01N 50°02' W 001°41'4 7.6
2017-Nov-03 01:30N 50°01' W 001°47'4 7.1
2017-Nov-03 01:00N 49°60' W 001°52'4 7.1
2017-Nov-03 00:31N 49°59' W 001°57'4 7.0
2017-Nov-03 00:00N 49°58' W 002°03'4 7.2
2017-Nov-02 23:30N 49°57' W 002°08'4 8.1
2017-Nov-02 22:58N 49°56' W 002°15'6 9.2
2017-Nov-02 22:21N 49°54' W 002°23'3 9.9
2017-Nov-02 22:00N 49°54' W 002°28'610.4
2017-Nov-02 21:25N 49°52' W 002°37'510.8
2017-Nov-02 21:00N 49°51' W 002°44'511.0
2017-Nov-02 20:30N 49°50' W 002°52'611.4
2017-Nov-02 20:00N 49°48' W 003°01'611.6
2017-Nov-02 19:29N 49°45' W 003°09'611.8
2017-Nov-02 19:00N 49°42' W 003°16'611.8
2017-Nov-02 18:28N 49°39' W 003°25'612.0
2017-Nov-02 17:59N 49°36' W 003°32'612.0
2017-Nov-02 17:29N 49°33' W 003°40'1012.1
2017-Nov-02 16:38N 49°27' W 003°54'  
Track history (hours):
 
Tides and Currents Weather Stations Pressure Air Temp Water Temp Dewpoint Dewpoint Depression Visibility Wind Speed Wind Dir Waves Ship Positions

Saga Journey

Last reported at 2017-Nov-12 16:12 UTC. Time now 2017-Nov-18 19:43 UTC.
Position N 35°55' W 017°14'.

Length 199 m; draft 6.7 m.

Type: Cargo ship. MMSI: 477883200.

Date/timePositionNaut miles runAvg speedWind from/ knotsBaromVisibWave heightAir tempDewpointWater temp
2017-Nov-12 16:12N 35°55' W 017°14'414.4
2017-Nov-12 15:57N 35°58' W 017°12'20814.5
2017-Nov-12 01:35N 38°52' W 014°47'7114.7
2017-Nov-11 20:44N 39°51' W 013°56'314.7
2017-Nov-11 20:30N 39°54' W 013°54'714.7
2017-Nov-11 20:01N 40°00' W 013°49'714.8
2017-Nov-11 19:31N 40°06' W 013°43'714.6
2017-Nov-11 19:00N 40°12' W 013°38'814.4
2017-Nov-11 18:26N 40°19' W 013°32'714.7
2017-Nov-11 17:59N 40°25' W 013°27'814.5
2017-Nov-11 17:27N 40°31' W 013°22'614.6
2017-Nov-11 17:00N 40°37' W 013°17'1314.7
2017-Nov-11 16:07N 40°48' W 013°07'214.7
2017-Nov-11 16:00N 40°49' W 013°06'814.7
2017-Nov-11 15:27N 40°55' W 012°59'714.7
2017-Nov-11 15:00N 41°01' W 012°55'914.6
2017-Nov-11 14:22N 41°09' W 012°49'714.4
2017-Nov-11 13:55N 41°14' W 012°44'44214.4
2017-Nov-10 07:10N 47°27' W 007°10'313.6
2017-Nov-10 06:56N 47°29' W 007°08'713.2
2017-Nov-10 06:23N 47°35' W 007°02'612.9
2017-Nov-10 05:56N 47°40' W 006°57'613.2
2017-Nov-10 05:28N 47°45' W 006°52'713.4
2017-Nov-10 04:58N 47°51' W 006°47'613.4
2017-Nov-10 04:30N 47°57' W 006°42'713.4
2017-Nov-10 04:00N 48°02' W 006°37'713.6
2017-Nov-10 03:30N 48°08' W 006°31'814.2
2017-Nov-10 02:55N 48°15' W 006°25'814.4
2017-Nov-10 02:22N 48°22' W 006°18'1414.7
2017-Nov-10 01:25N 48°34' W 006°07'1614.8
2017-Nov-10 00:18N 48°47' W 005°54'514.8
2017-Nov-09 23:57N 48°52' W 005°50'613.0
2017-Nov-09 23:29N 48°56' W 005°43'612.8
2017-Nov-09 23:00N 48°59' W 005°35'612.9
2017-Nov-09 22:30N 49°02' W 005°26'811.8
2017-Nov-09 21:49N 49°06' W 005°16'410.0
2017-Nov-09 21:26N 49°08' W 005°11'6 9.8
2017-Nov-09 20:48N 49°11' W 005°02'6 9.9
2017-Nov-09 20:10N 49°14' W 004°54'410.0
2017-Nov-09 19:47N 49°16' W 004°49'2510.6
2017-Nov-09 17:26N 49°29' W 004°16'3712.0
2017-Nov-09 14:24N 49°48' W 003°28'511.9
2017-Nov-09 13:59N 49°50' W 003°21'711.5
2017-Nov-09 13:24N 49°53' W 003°12'411.1
2017-Nov-09 13:00N 49°56' W 003°06'510.7
2017-Nov-09 12:30N 49°58' W 002°59'510.2
2017-Nov-09 12:00N 49°59' W 002°51'5 9.8
2017-Nov-09 11:30N 50°01' W 002°44'5 9.4
2017-Nov-09 10:57N 50°02' W 002°36'4 9.1
2017-Nov-09 10:30N 50°03' W 002°30'9 9.3
2017-Nov-09 09:33N 50°06' W 002°17'3 9.7
2017-Nov-09 09:14N 50°07' W 002°12'210.1
2017-Nov-09 09:00N 50°08' W 002°09'510.6
2017-Nov-09 08:31N 50°09' W 002°01'611.4
2017-Nov-09 08:00N 50°11' W 001°52'612.4
2017-Nov-09 07:30N 50°12' W 001°43'713.2
2017-Nov-09 07:00N 50°14' W 001°33'713.9
2017-Nov-09 06:31N 50°16' W 001°23'714.3
2017-Nov-09 06:01N 50°18' W 001°12'2914.3
2017-Nov-09 04:00N 50°26' W 000°29'713.2
2017-Nov-09 03:27N 50°28' W 000°18'612.8
2017-Nov-09 03:00N 50°30' W 000°09'612.2
2017-Nov-09 02:30N 50°31' W 000°00'611.8
2017-Nov-09 02:01N 50°33' E 000°09'611.2
2017-Nov-09 01:30N 50°35' E 000°17'510.3
2017-Nov-09 01:00N 50°36' E 000°25'510.4
2017-Nov-09 00:31N 50°38' E 000°33'510.6
2017-Nov-09 00:00N 50°40' E 000°40'611.3
2017-Nov-08 23:31N 50°44' E 000°47'611.8
2017-Nov-08 23:00N 50°47' E 000°55'612.8
2017-Nov-08 22:31N 50°51' E 001°03'813.9
2017-Nov-08 21:57N 50°56' E 001°12'714.9
2017-Nov-08 21:31N 51°01' E 001°20'714.9
2017-Nov-08 21:00N 51°05' E 001°29'714.7
2017-Nov-08 20:31N 51°10' E 001°38'713.6
2017-Nov-08 20:01N 51°15' E 001°46'612.5
2017-Nov-08 19:31N 51°19' E 001°53'612.1
2017-Nov-08 19:01N 51°24' E 001°59'611.0
2017-Nov-08 18:30N 51°23' E 002°08'611.9
2017-Nov-08 18:01N 51°21' E 002°16'611.4
2017-Nov-08 17:30N 51°22' E 002°25'711.1
2017-Nov-08 16:52N 51°23' E 002°37'411.2
2017-Nov-08 16:30N 51°22' E 002°43'510.1
2017-Nov-08 16:01N 51°23' E 002°51'612.6
2017-Nov-08 15:31N 51°24' E 003°01'612.3
2017-Nov-08 15:00N 51°24' E 003°11'611.3
2017-Nov-08 14:31N 51°24' E 003°20'5 9.5
2017-Nov-08 14:00N 51°25' E 003°27'5 9.6
2017-Nov-08 13:31N 51°26' E 003°35'4 8.5
2017-Nov-08 13:00N 51°28' E 003°41'1 2.4
2017-Nov-08 12:30N 51°27' E 003°43'0 0.2
2017-Nov-08 11:58N 51°27' E 003°43'0 0.0
2017-Nov-08 11:28N 51°27' E 003°43'0 0.0
2017-Nov-08 10:49N 51°27' E 003°43'0 0.0
2017-Nov-08 10:22N 51°27' E 003°43'0 0.0
2017-Nov-08 09:58N 51°27' E 003°43'0 0.0
2017-Nov-08 09:28N 51°27' E 003°43'0 0.0
2017-Nov-08 08:52N 51°27' E 003°43'0 0.0
2017-Nov-08 08:28N 51°27' E 003°43'0 0.0
2017-Nov-08 07:55N 51°27' E 003°43'0 0.0
2017-Nov-08 07:22N 51°27' E 003°43'0 0.0
2017-Nov-08 06:58N 51°27' E 003°43'0 0.0
2017-Nov-08 06:22N 51°27' E 003°43'0 0.0
2017-Nov-08 05:58N 51°27' E 003°43'0 0.0
2017-Nov-08 05:28N 51°27' E 003°43'0 0.0
2017-Nov-08 04:58N 51°27' E 003°43'0 0.0
2017-Nov-08 04:25N 51°27' E 003°43'0 0.0
2017-Nov-08 03:58N 51°27' E 003°43'0 0.0
2017-Nov-08 03:22N 51°27' E 003°43'0 0.0
2017-Nov-08 02:58N 51°27' E 003°43'0 0.0
2017-Nov-08 02:28N 51°27' E 003°43'0 0.0
2017-Nov-08 01:58N 51°27' E 003°43'0 0.0
2017-Nov-08 01:28N 51°27' E 003°43'0 0.0
2017-Nov-08 00:58N 51°27' E 003°43'0 0.0
2017-Nov-08 00:22N 51°27' E 003°43'0 0.0
2017-Nov-07 23:49N 51°27' E 003°43'0 0.0
2017-Nov-07 23:28N 51°27' E 003°43'0 0.0
2017-Nov-07 22:58N 51°27' E 003°43'0 0.0
2017-Nov-07 22:22N 51°27' E 003°43'0 0.0
2017-Nov-07 21:58N 51°27' E 003°43'0 0.0
2017-Nov-07 21:28N 51°27' E 003°43'0 0.0
2017-Nov-07 20:55N 51°27' E 003°43'0 0.0
2017-Nov-07 20:28N 51°27' E 003°43'0 0.0
2017-Nov-07 19:58N 51°27' E 003°43'0 0.0
2017-Nov-07 19:28N 51°27' E 003°43'0 0.0
2017-Nov-07 18:58N 51°27' E 003°43'0 0.0
2017-Nov-07 18:25N 51°27' E 003°43'0 0.0
2017-Nov-07 17:58N 51°27' E 003°43'0 0.0
2017-Nov-07 17:28N 51°27' E 003°43'0 0.0
2017-Nov-07 16:58N 51°27' E 003°43'0 0.0
2017-Nov-07 16:22N 51°27' E 003°43'0 0.0
2017-Nov-07 15:58N 51°27' E 003°43'0 0.0
2017-Nov-07 15:28N 51°27' E 003°43'0 0.0
2017-Nov-07 14:58N 51°27' E 003°43'0 0.0
2017-Nov-07 14:28N 51°27' E 003°43'0 0.0
2017-Nov-07 13:58N 51°27' E 003°43'0 0.0
2017-Nov-07 13:28N 51°27' E 003°43'0 0.0
2017-Nov-07 12:58N 51°27' E 003°43'0 0.0
2017-Nov-07 12:28N 51°27' E 003°43'0 0.0
2017-Nov-07 11:58N 51°27' E 003°43'0 0.0
2017-Nov-07 11:28N 51°27' E 003°43'0 0.0
2017-Nov-07 10:58N 51°27' E 003°43'0 0.0
2017-Nov-07 10:28N 51°27' E 003°43'0 0.0
2017-Nov-07 09:58N 51°27' E 003°43'0 0.0
2017-Nov-07 09:28N 51°27' E 003°43'0 0.0
2017-Nov-07 08:49N 51°27' E 003°43'0 0.0
2017-Nov-07 08:28N 51°27' E 003°43'0 0.0
2017-Nov-07 07:58N 51°27' E 003°43'0 0.0
2017-Nov-07 07:28N 51°27' E 003°43'0 0.0
2017-Nov-07 06:58N 51°27' E 003°43'0 0.0
2017-Nov-07 06:28N 51°27' E 003°43'0 0.0
2017-Nov-07 05:58N 51°27' E 003°43'0 0.0
2017-Nov-07 05:28N 51°27' E 003°43'0 0.0
2017-Nov-07 04:58N 51°27' E 003°43'0 0.0
2017-Nov-07 04:28N 51°27' E 003°43'0 0.0
2017-Nov-07 03:58N 51°27' E 003°43'0 0.0
2017-Nov-07 03:28N 51°27' E 003°43'0 0.0
2017-Nov-07 02:58N 51°27' E 003°43'0 0.0
2017-Nov-07 02:28N 51°27' E 003°43'0 0.0
2017-Nov-07 01:58N 51°27' E 003°43'0 0.0
2017-Nov-07 01:28N 51°27' E 003°43'0 0.0
2017-Nov-07 00:58N 51°27' E 003°43'0 0.0
2017-Nov-07 00:28N 51°27' E 003°43'0 0.0
2017-Nov-06 23:58N 51°27' E 003°43'0 0.0
2017-Nov-06 23:28N 51°27' E 003°43'0 0.0
2017-Nov-06 22:58N 51°27' E 003°43'0 0.0
2017-Nov-06 22:28N 51°27' E 003°43'0 0.0
2017-Nov-06 21:58N 51°27' E 003°43'0 0.0
2017-Nov-06 21:28N 51°27' E 003°43'0 0.0
2017-Nov-06 20:58N 51°27' E 003°43'0 0.0
2017-Nov-06 20:28N 51°27' E 003°43'0 0.0
2017-Nov-06 02:22N 51°27' E 003°43'0 0.0
2017-Nov-06 01:58N 51°27' E 003°43'0 0.0
2017-Nov-06 01:28N 51°27' E 003°43'0 0.0
2017-Nov-06 00:58N 51°27' E 003°43'0 0.0
2017-Nov-06 00:28N 51°27' E 003°43'0 0.0
2017-Nov-05 23:58N 51°27' E 003°43'0 0.0
2017-Nov-05 23:28N 51°27' E 003°43'0 0.0
2017-Nov-05 22:58N 51°27' E 003°43'0 0.0
2017-Nov-05 22:28N 51°27' E 003°43'0 0.0
2017-Nov-05 21:58N 51°27' E 003°43'0 0.0
2017-Nov-05 21:28N 51°27' E 003°43'0 0.0
2017-Nov-05 20:40N 51°27' E 003°43'0 0.0
2017-Nov-05 20:28N 51°27' E 003°43'0 0.0
2017-Nov-05 19:58N 51°27' E 003°43'0 0.0
2017-Nov-05 19:22N 51°27' E 003°43'0 0.0
2017-Nov-05 18:58N 51°27' E 003°43'0 0.0
2017-Nov-05 18:22N 51°27' E 003°43'0 0.0
2017-Nov-05 17:58N 51°27' E 003°43'0 0.0
2017-Nov-05 17:28N 51°27' E 003°43'0 0.0
2017-Nov-05 16:58N 51°27' E 003°43'0 0.0
2017-Nov-05 16:28N 51°27' E 003°43'0 0.0
2017-Nov-05 15:52N 51°27' E 003°43'0 0.0
2017-Nov-05 15:28N 51°27' E 003°43'0 0.0
2017-Nov-05 14:58N 51°27' E 003°43'0 0.0
2017-Nov-05 14:28N 51°27' E 003°43'0 0.0
2017-Nov-05 13:58N 51°27' E 003°43'0 0.0
2017-Nov-05 13:28N 51°27' E 003°43'0 0.0
2017-Nov-05 12:52N 51°27' E 003°43'0 0.0
2017-Nov-05 12:28N 51°27' E 003°43'0 0.0
2017-Nov-05 11:58N 51°27' E 003°43'0 0.0
2017-Nov-05 11:28N 51°27' E 003°43'0 0.0
2017-Nov-05 10:43N 51°27' E 003°43'0 0.0
2017-Nov-05 10:22N 51°27' E 003°43'0 0.0
2017-Nov-05 09:55N 51°27' E 003°43'0 0.0
2017-Nov-05 09:25N 51°27' E 003°43'0 0.0
2017-Nov-05 08:58N 51°27' E 003°43'0 0.0
2017-Nov-05 08:22N 51°27' E 003°43'0 0.0
2017-Nov-05 07:58N 51°27' E 003°43'0 0.0
2017-Nov-05 07:19N 51°27' E 003°43'0 0.0
2017-Nov-05 06:55N 51°27' E 003°43'0 0.0
2017-Nov-05 06:28N 51°27' E 003°43'0 0.0
2017-Nov-05 05:58N 51°27' E 003°43'0 0.0
2017-Nov-05 05:28N 51°27' E 003°43'0 0.0
2017-Nov-05 04:58N 51°27' E 003°43'0 0.0
2017-Nov-05 04:28N 51°27' E 003°43'0 0.0
2017-Nov-05 03:58N 51°27' E 003°43'0 0.0
2017-Nov-05 03:28N 51°27' E 003°43'0 0.0
2017-Nov-05 02:58N 51°27' E 003°43'0 0.0
2017-Nov-05 02:28N 51°27' E 003°43'0 0.0
2017-Nov-05 01:58N 51°27' E 003°43'0 0.0
2017-Nov-05 01:28N 51°27' E 003°43'0 0.0
2017-Nov-05 00:55N 51°27' E 003°43'0 0.0
2017-Nov-05 00:28N 51°27' E 003°43'0 0.0
2017-Nov-04 23:58N 51°27' E 003°43'0 0.0
2017-Nov-04 23:28N 51°27' E 003°43'0 0.0
2017-Nov-04 22:58N 51°27' E 003°43'0 0.0
2017-Nov-04 22:28N 51°27' E 003°43'0 0.0
2017-Nov-04 21:58N 51°27' E 003°43'0 0.0
2017-Nov-04 21:28N 51°27' E 003°43'0 0.0
2017-Nov-04 20:58N 51°27' E 003°43'0 0.0
2017-Nov-04 20:28N 51°27' E 003°43'0 0.0
2017-Nov-04 19:58N 51°27' E 003°43'0 0.0
2017-Nov-04 19:28N 51°27' E 003°43'0 0.0
2017-Nov-04 18:58N 51°27' E 003°43'0 0.0
2017-Nov-04 18:28N 51°27' E 003°43'0 0.0
2017-Nov-04 17:58N 51°27' E 003°43'0 0.0
2017-Nov-04 17:28N 51°27' E 003°43'0 0.0
2017-Nov-04 16:55N 51°27' E 003°43'0 0.0
2017-Nov-04 16:28N 51°27' E 003°43'0 0.0
2017-Nov-04 15:58N 51°27' E 003°43'0 0.0
2017-Nov-04 15:22N 51°27' E 003°43'0 0.0
2017-Nov-04 14:58N 51°27' E 003°43'0 0.0
2017-Nov-04 14:28N 51°27' E 003°43'0 0.0
2017-Nov-04 13:58N 51°27' E 003°43'0 0.0
2017-Nov-04 13:28N 51°27' E 003°43'0 0.0
2017-Nov-04 12:58N 51°27' E 003°43'0 0.0
2017-Nov-04 12:28N 51°27' E 003°43'0 0.0
2017-Nov-04 11:58N 51°27' E 003°43'0 0.0
2017-Nov-04 11:28N 51°27' E 003°43'0 0.0
2017-Nov-04 10:58N 51°27' E 003°43'0 0.0
2017-Nov-04 10:25N 51°27' E 003°43'0 0.0
2017-Nov-04 09:58N 51°27' E 003°43'0 0.0
2017-Nov-04 09:28N 51°27' E 003°43'0 0.0
2017-Nov-04 08:58N 51°27' E 003°43'0 0.0
2017-Nov-04 08:28N 51°27' E 003°43'0 0.0
2017-Nov-04 07:58N 51°27' E 003°43'0 0.0
2017-Nov-04 07:28N 51°27' E 003°43'0 0.0
2017-Nov-04 06:58N 51°27' E 003°43'0 0.0
2017-Nov-04 06:28N 51°27' E 003°43'0 0.0
2017-Nov-04 05:58N 51°27' E 003°43'0 0.0
2017-Nov-04 05:28N 51°27' E 003°43'0 0.0
2017-Nov-04 04:58N 51°27' E 003°43'0 0.0
2017-Nov-04 04:28N 51°27' E 003°43'0 0.0
2017-Nov-04 03:58N 51°27' E 003°43'0 0.0
2017-Nov-04 03:22N 51°27' E 003°43'0 0.0
2017-Nov-04 02:58N 51°27' E 003°43'0 0.0
2017-Nov-04 02:28N 51°27' E 003°43'0 0.0
2017-Nov-04 01:56N 51°27' E 003°43'0 0.0
2017-Nov-04 01:30N 51°27' E 003°43'0 0.6
2017-Nov-04 01:00N 51°27' E 003°43'1 2.8
2017-Nov-04 00:30N 51°27' E 003°41'3 5.5
2017-Nov-04 00:00N 51°26' E 003°37'510.6
2017-Nov-03 23:30N 51°25' E 003°29'714.9
2017-Nov-03 23:01N 51°24' E 003°17'714.8
2017-Nov-03 22:31N 51°24' E 003°05'612.8
2017-Nov-03 22:00N 51°22' E 002°55'611.4
2017-Nov-03 21:30N 51°21' E 002°46'4 8.8
2017-Nov-03 21:00N 51°22' E 002°39'2 3.9
2017-Nov-03 20:30N 51°22' E 002°36'2 4.3
2017-Nov-03 20:00N 51°22' E 002°33'2 4.9
2017-Nov-03 19:30N 51°22' E 002°29'3 5.9
2017-Nov-03 19:00N 51°20' E 002°24'3 5.4
2017-Nov-03 18:30N 51°19' E 002°21'2 4.5
2017-Nov-03 18:00N 51°18' E 002°18'3 6.4
2017-Nov-03 17:30N 51°17' E 002°13'3 6.9
2017-Nov-03 17:00N 51°15' E 002°08'4 7.2
2017-Nov-03 16:30N 51°13' E 002°03'4 7.5
2017-Nov-03 16:00N 51°11' E 001°58'4 7.8
2017-Nov-03 15:30N 51°09' E 001°53'5 9.2
2017-Nov-03 15:00N 51°07' E 001°46'611.6
2017-Nov-03 14:30N 51°03' E 001°40'612.1
2017-Nov-03 14:00N 50°59' E 001°33'612.0
2017-Nov-03 13:29N 50°53' E 001°27'612.5
2017-Nov-03 13:00N 50°48' E 001°24'612.2
2017-Nov-03 12:30N 50°42' E 001°20'611.7
2017-Nov-03 12:00N 50°38' E 001°13'611.8
2017-Nov-03 11:30N 50°35' E 001°06'611.7
2017-Nov-03 10:58N 50°31' E 000°58'611.5
2017-Nov-03 10:27N 50°27' E 000°51'511.5
2017-Nov-03 10:00N 50°26' E 000°43'1112.0
2017-Nov-03 09:04N 50°23' E 000°26'112.5
2017-Nov-03 09:00N 50°23' E 000°25'612.7
2017-Nov-03 08:30N 50°21' E 000°15'713.2
2017-Nov-03 08:00N 50°20' E 000°05'713.3
2017-Nov-03 07:30N 50°18' W 000°05'713.4
2017-Nov-03 07:00N 50°16' W 000°15'713.6
2017-Nov-03 06:29N 50°14' W 000°26'713.4
2017-Nov-03 05:57N 50°13' W 000°37'613.1
2017-Nov-03 05:30N 50°11' W 000°45'712.7
2017-Nov-03 04:59N 50°09' W 000°55'612.1
2017-Nov-03 04:29N 50°08' W 001°05'611.4
2017-Nov-03 03:59N 50°07' W 001°13'510.5
2017-Nov-03 03:30N 50°05' W 001°21'5 9.7
2017-Nov-03 03:00N 50°04' W 001°28'4 8.9
2017-Nov-03 02:31N 50°03' W 001°35'4 8.2
2017-Nov-03 02:01N 50°02' W 001°41'4 7.6
2017-Nov-03 01:30N 50°01' W 001°47'4 7.1
2017-Nov-03 01:00N 49°60' W 001°52'4 7.1
2017-Nov-03 00:31N 49°59' W 001°57'4 7.0
2017-Nov-03 00:00N 49°58' W 002°03'4 7.2
2017-Nov-02 23:30N 49°57' W 002°08'4 8.1
2017-Nov-02 22:58N 49°56' W 002°15'6 9.2
2017-Nov-02 22:21N 49°54' W 002°23'3 9.9
2017-Nov-02 22:00N 49°54' W 002°28'610.4
2017-Nov-02 21:25N 49°52' W 002°37'510.8
2017-Nov-02 21:00N 49°51' W 002°44'511.0
2017-Nov-02 20:30N 49°50' W 002°52'611.4
2017-Nov-02 20:00N 49°48' W 003°01'611.6
2017-Nov-02 19:29N 49°45' W 003°09'611.8
2017-Nov-02 19:00N 49°42' W 003°16'611.8
2017-Nov-02 18:28N 49°39' W 003°25'612.0
2017-Nov-02 17:59N 49°36' W 003°32'612.0
2017-Nov-02 17:29N 49°33' W 003°40'1012.1
2017-Nov-02 16:38N 49°27' W 003°54'  

Dump ship's entire track history